createdAt,value
2022-12-04T00:01:30.152Z,100460.72
2022-12-04T00:04:01.036Z,100459.19
2022-12-04T00:06:31.866Z,100460.47
2022-12-04T00:09:01.615Z,100451.50
2022-12-04T00:11:31.787Z,100455.72
2022-12-04T00:14:07.155Z,100454.25
2022-12-04T00:16:36.523Z,100456.97
2022-12-04T00:19:06.181Z,100460.72
2022-12-04T00:21:38.999Z,100453.75
2022-12-04T00:24:08.718Z,100455.25
2022-12-04T00:26:38.238Z,100454.25
2022-12-04T00:29:08.861Z,100456.00
2022-12-04T00:31:39.554Z,100450.53
2022-12-04T00:34:10.748Z,100440.31
2022-12-04T00:36:51.725Z,100447.28
2022-12-04T00:39:26.851Z,100449.28
2022-12-04T00:41:55.815Z,100445.78
2022-12-04T00:44:27.410Z,100449.03
2022-12-04T00:46:57.974Z,100442.53
2022-12-04T00:49:28.220Z,100452.00
2022-12-04T00:51:58.699Z,100456.75
2022-12-04T00:54:32.214Z,100452.00
2022-12-04T00:57:02.675Z,100457.97
2022-12-04T00:59:33.311Z,100460.47
2022-12-04T01:02:03.707Z,100453.00
2022-12-04T01:04:37.911Z,100445.28
2022-12-04T01:07:12.595Z,100444.06
2022-12-04T01:09:45.351Z,100440.81
2022-12-04T01:12:20.713Z,100436.56
2022-12-04T01:14:53.046Z,100436.81
2022-12-04T01:17:21.747Z,100426.88
2022-12-04T01:19:53.748Z,100416.19
2022-12-04T01:22:27.389Z,100415.19
2022-12-04T01:24:58.405Z,100418.19
2022-12-04T01:27:27.032Z,100418.94
2022-12-04T01:29:58.939Z,100421.91
2022-12-04T01:32:30.781Z,100424.41
2022-12-04T01:35:00.585Z,100435.09
2022-12-04T01:37:35.117Z,100429.63
2022-12-04T01:40:07.064Z,100438.81
2022-12-04T01:42:39.653Z,100436.56
2022-12-04T01:45:41.096Z,100442.56
2022-12-04T01:48:23.087Z,100441.06
2022-12-04T01:51:01.553Z,100437.56
2022-12-04T01:53:41.124Z,100438.81
2022-12-04T01:56:12.165Z,100434.84
2022-12-04T01:58:49.510Z,100428.88
2022-12-04T02:01:19.949Z,100434.84
2022-12-04T02:03:51.289Z,100433.09
2022-12-04T02:06:26.329Z,100433.09
2022-12-04T02:08:59.368Z,100426.88
2022-12-04T02:11:37.868Z,100429.38
2022-12-04T02:14:18.452Z,100433.13
2022-12-04T02:17:01.119Z,100434.34
2022-12-04T02:19:49.281Z,100434.34
2022-12-04T02:22:31.263Z,100429.88
2022-12-04T02:25:12.700Z,100430.13
2022-12-04T02:28:04.139Z,100436.34
2022-12-04T02:30:37.074Z,100442.81
2022-12-04T02:33:21.244Z,100436.09
2022-12-04T02:35:57.116Z,100431.88
2022-12-04T02:38:32.149Z,100437.59
2022-12-04T02:41:07.873Z,100443.06
2022-12-04T02:43:44.437Z,100440.31
2022-12-04T02:46:18.341Z,100439.06
2022-12-04T02:48:52.104Z,100439.06
2022-12-04T02:51:25.125Z,100439.56
2022-12-04T02:53:58.182Z,100439.31
2022-12-04T02:56:29.087Z,100442.31
2022-12-04T02:59:05.457Z,100447.78
2022-12-04T03:01:37.686Z,100442.81
2022-12-04T03:04:13.720Z,100440.06
2022-12-04T03:06:45.547Z,100435.81
2022-12-04T03:09:19.863Z,100438.81
2022-12-04T03:11:55.300Z,100431.84
2022-12-04T03:14:28.999Z,100424.13
2022-12-04T03:17:02.597Z,100416.69
2022-12-04T03:19:37.749Z,100411.69
2022-12-04T03:22:10.783Z,100407.97
2022-12-04T03:24:41.946Z,100416.19
2022-12-04T03:27:19.783Z,100404.25
2022-12-04T03:29:58.472Z,100410.22
2022-12-04T03:32:34.770Z,100414.44
2022-12-04T03:35:07.898Z,100400.53
2022-12-04T03:37:40.761Z,100403.00
2022-12-04T03:40:18.836Z,100391.09
2022-12-04T03:42:51.020Z,100405.47
2022-12-04T03:45:27.114Z,100395.06
2022-12-04T03:48:02.783Z,100386.59
2022-12-04T03:50:38.075Z,100388.06
2022-12-04T03:53:13.972Z,100389.06
2022-12-04T03:55:48.215Z,100384.34
2022-12-04T03:58:23.292Z,100396.78
2022-12-04T04:00:55.183Z,100395.03
2022-12-04T04:03:28.510Z,100382.09
2022-12-04T04:06:02.398Z,100392.78
2022-12-04T04:08:35.482Z,100376.38
2022-12-04T04:11:13.463Z,100376.13
2022-12-04T04:14:05.135Z,100377.88
2022-12-04T04:16:56.201Z,100381.84
2022-12-04T04:19:47.210Z,100382.09
2022-12-04T04:22:35.848Z,100374.88
2022-12-04T04:25:08.141Z,100380.88
2022-12-04T04:27:36.774Z,100386.06
2022-12-04T04:30:10.437Z,100387.09
2022-12-04T04:32:47.345Z,100380.13
2022-12-04T04:35:21.997Z,100386.28
2022-12-04T04:37:57.727Z,100378.09
2022-12-04T04:40:34.319Z,100372.59
2022-12-04T04:43:09.646Z,100362.41
2022-12-04T04:45:42.635Z,100362.66
2022-12-04T04:48:16.255Z,100376.34
2022-12-04T04:50:46.157Z,100376.59
2022-12-04T04:53:19.603Z,100381.59
2022-12-04T04:55:51.403Z,100379.59
2022-12-04T04:58:23.306Z,100370.13
2022-12-04T05:00:58.172Z,100363.16
2022-12-04T05:03:28.912Z,100375.06
2022-12-04T05:05:57.348Z,100372.59
2022-12-04T05:08:28.731Z,100369.88
2022-12-04T05:10:57.050Z,100380.53
2022-12-04T05:13:25.587Z,100379.28
2022-12-04T05:16:00.160Z,100386.53
2022-12-04T05:18:30.759Z,100385.53
2022-12-04T05:20:58.384Z,100378.56
2022-12-04T05:23:29.006Z,100380.31
2022-12-04T05:26:00.919Z,100386.28
2022-12-04T05:28:29.154Z,100391.25
2022-12-04T05:30:57.935Z,100389.78
2022-12-04T05:33:26.134Z,100389.25
2022-12-04T05:36:00.053Z,100387.50
2022-12-04T05:38:30.445Z,100387.75
2022-12-04T05:40:59.645Z,100383.28
2022-12-04T05:43:30.498Z,100383.53
2022-12-04T05:46:02.096Z,100384.78
2022-12-04T05:48:31.034Z,100389.25
2022-12-04T05:51:00.652Z,100386.50
2022-12-04T05:53:29.240Z,100385.25
2022-12-04T05:55:58.742Z,100375.81
2022-12-04T05:58:27.453Z,100392.50
2022-12-04T06:00:55.923Z,100390.25
2022-12-04T06:03:24.470Z,100391.00
2022-12-04T06:05:52.631Z,100391.47
2022-12-04T06:08:23.156Z,100395.72
2022-12-04T06:10:52.814Z,100394.97
2022-12-04T06:13:21.681Z,100393.72
2022-12-04T06:15:49.991Z,100399.19
2022-12-04T06:18:18.597Z,100387.25
2022-12-04T06:20:47.378Z,100394.22
2022-12-04T06:23:15.664Z,100396.97
2022-12-04T06:25:45.627Z,100394.97
2022-12-04T06:28:16.618Z,100386.25
2022-12-04T06:30:44.914Z,100390.97
2022-12-04T06:33:13.241Z,100398.41
2022-12-04T06:35:41.462Z,100407.16
2022-12-04T06:38:09.599Z,100394.19
2022-12-04T06:40:40.705Z,100397.44
2022-12-04T06:43:10.302Z,100397.13
2022-12-04T06:45:39.115Z,100394.94
2022-12-04T06:48:08.013Z,100396.91
2022-12-04T06:50:36.476Z,100393.19
2022-12-04T06:53:08.314Z,100389.94
2022-12-04T06:55:38.237Z,100384.66
2022-12-04T06:58:06.638Z,100384.69
2022-12-04T07:00:37.359Z,100392.19
2022-12-04T07:03:05.560Z,100384.72
2022-12-04T07:05:34.031Z,100385.22
2022-12-04T07:08:02.672Z,100385.97
2022-12-04T07:10:34.499Z,100389.97
2022-12-04T07:13:02.900Z,100392.72
2022-12-04T07:15:32.063Z,100385.50
2022-12-04T07:18:02.639Z,100383.97
2022-12-04T07:20:31.425Z,100378.50
2022-12-04T07:23:05.551Z,100384.28
2022-12-04T07:25:41.187Z,100378.06
2022-12-04T07:28:11.276Z,100387.00
2022-12-04T07:30:40.213Z,100379.53
2022-12-04T07:33:09.921Z,100378.53
2022-12-04T07:35:40.160Z,100375.81
2022-12-04T07:38:08.608Z,100376.81
2022-12-04T07:40:38.187Z,100388.19
2022-12-04T07:43:06.756Z,100387.47
2022-12-04T07:45:35.512Z,100391.19
2022-12-04T07:48:05.137Z,100395.47
2022-12-04T07:50:37.306Z,100401.19
2022-12-04T07:53:05.967Z,100399.69
2022-12-04T07:55:36.777Z,100403.66
2022-12-04T07:58:05.411Z,100408.34
2022-12-04T08:00:33.849Z,100413.34
2022-12-04T08:03:02.792Z,100404.88
2022-12-04T08:05:31.102Z,100398.88
2022-12-04T08:08:04.375Z,100399.38
2022-12-04T08:10:32.891Z,100394.63
2022-12-04T08:13:00.981Z,100390.63
2022-12-04T08:15:29.076Z,100392.41
2022-12-04T08:18:03.554Z,100390.41
2022-12-04T08:20:34.242Z,100388.66
2022-12-04T08:23:03.914Z,100388.16
2022-12-04T08:25:32.300Z,100391.66
2022-12-04T08:28:00.649Z,100395.13
2022-12-04T08:30:29.294Z,100386.44
2022-12-04T08:32:58.613Z,100388.66
2022-12-04T08:35:26.944Z,100384.84
2022-12-04T08:37:55.699Z,100393.09
2022-12-04T08:40:25.765Z,100380.69
2022-12-04T08:42:54.192Z,100378.72
2022-12-04T08:45:23.392Z,100384.22
2022-12-04T08:47:52.710Z,100376.97
2022-12-04T08:50:21.312Z,100372.94
2022-12-04T08:52:49.494Z,100390.88
2022-12-04T08:55:18.512Z,100382.66
2022-12-04T08:58:13.347Z,100384.41
2022-12-04T09:00:43.536Z,100377.19
2022-12-04T09:03:14.878Z,100387.41
2022-12-04T09:05:43.304Z,100395.38
2022-12-04T09:08:12.482Z,100395.59
2022-12-04T09:10:45.928Z,100391.06
2022-12-04T09:13:16.267Z,100386.09
2022-12-04T09:15:46.982Z,100388.06
2022-12-04T09:18:15.326Z,100390.31
2022-12-04T09:20:43.978Z,100397.59
2022-12-04T09:23:12.502Z,100387.63
2022-12-04T09:25:41.004Z,100383.91
2022-12-04T09:28:13.691Z,100378.63
2022-12-04T09:30:43.533Z,100388.09
2022-12-04T09:33:13.050Z,100382.63
2022-12-04T09:35:41.462Z,100393.09
2022-12-04T09:38:09.789Z,100404.31
2022-12-04T09:40:49.600Z,100392.28
2022-12-04T09:43:25.527Z,100389.78
2022-12-04T09:46:01.811Z,100384.84
2022-12-04T09:48:35.417Z,100382.84
2022-12-04T09:51:05.809Z,100385.63
2022-12-04T09:53:44.533Z,100381.38
2022-12-04T09:56:16.187Z,100385.88
2022-12-04T09:58:53.545Z,100387.88
2022-12-04T10:01:33.109Z,100382.81
2022-12-04T10:04:06.153Z,100378.88
2022-12-04T10:06:41.371Z,100374.16
2022-12-04T10:09:18.742Z,100367.16
2022-12-04T10:11:54.904Z,100370.91
2022-12-04T10:14:46.614Z,100366.94
2022-12-04T10:17:32.965Z,100357.16
2022-12-04T10:20:10.216Z,100354.88
2022-12-04T10:22:49.466Z,100346.63
2022-12-04T10:25:21.703Z,100356.94
2022-12-04T10:27:54.820Z,100358.22
2022-12-04T10:30:33.726Z,100360.69
2022-12-04T10:33:14.560Z,100344.19
2022-12-04T10:35:47.004Z,100348.44
2022-12-04T10:38:29.484Z,100337.44
2022-12-04T10:41:01.311Z,100333.38
2022-12-04T10:43:37.675Z,100336.72
2022-12-04T10:46:08.943Z,100333.91
2022-12-04T10:48:41.667Z,100333.72
2022-12-04T10:51:15.507Z,100328.53
2022-12-04T10:53:45.388Z,100325.78
2022-12-04T10:56:18.189Z,100327.03
2022-12-04T10:58:56.804Z,100317.72
2022-12-04T11:01:25.943Z,100317.53
2022-12-04T11:04:03.697Z,100313.63
2022-12-04T11:06:34.710Z,100298.13
2022-12-04T11:09:05.214Z,100293.13
2022-12-04T11:11:39.446Z,100294.59
2022-12-04T11:14:15.886Z,100294.72
2022-12-04T11:16:46.349Z,100293.06
2022-12-04T11:19:27.752Z,100310.59
2022-12-04T11:21:58.742Z,100314.09
2022-12-04T11:24:31.396Z,100308.34
2022-12-04T11:27:01.492Z,100305.88
2022-12-04T11:29:34.265Z,100311.16
2022-12-04T11:32:07.802Z,100309.16
2022-12-04T11:34:40.757Z,100306.84
2022-12-04T11:37:21.303Z,100301.94
2022-12-04T11:39:51.083Z,100311.41
2022-12-04T11:42:25.278Z,100302.94
2022-12-04T11:44:57.300Z,100308.47
2022-12-04T11:47:28.718Z,100316.41
2022-12-04T11:50:14.345Z,100325.63
2022-12-04T11:52:59.919Z,100326.81
2022-12-04T11:55:39.767Z,100329.09
2022-12-04T11:58:23.878Z,100321.91
2022-12-04T12:01:05.123Z,100330.13
2022-12-04T12:03:41.429Z,100332.84
2022-12-04T12:06:28.959Z,100327.88
2022-12-04T12:09:09.896Z,100317.25
2022-12-04T12:11:47.039Z,100329.44
2022-12-04T12:14:25.259Z,100330.69
2022-12-04T12:17:03.537Z,100322.72
2022-12-04T12:20:06.512Z,100321.44
2022-12-04T12:22:56.125Z,100320.47
2022-12-04T12:25:31.975Z,100324.69
2022-12-04T12:28:13.204Z,100318.22
2022-12-04T12:31:02.475Z,100319.22
2022-12-04T12:33:37.938Z,100318.69
2022-12-04T12:36:10.002Z,100312.88
2022-12-04T12:38:50.660Z,100315.69
2022-12-04T12:41:23.106Z,100317.72
2022-12-04T12:44:02.774Z,100327.44
2022-12-04T12:46:33.376Z,100326.97
2022-12-04T12:49:05.436Z,100328.19
2022-12-04T12:51:41.143Z,100326.22
2022-12-04T12:54:26.238Z,100331.69
2022-12-04T12:56:59.000Z,100331.16
2022-12-04T12:59:29.527Z,100328.91
2022-12-04T13:02:06.003Z,100317.72
2022-12-04T13:04:42.867Z,100309.72
2022-12-04T13:07:25.882Z,100294.56
2022-12-04T13:10:03.975Z,100282.25
2022-12-04T13:12:48.321Z,100264.63
2022-12-04T13:15:18.277Z,100280.06
2022-12-04T13:17:49.517Z,100277.78
2022-12-04T13:20:24.472Z,100271.25
2022-12-04T13:23:10.162Z,100273.00
2022-12-04T13:25:53.723Z,100275.59
2022-12-04T13:28:41.300Z,100276.06
2022-12-04T13:31:21.579Z,100268.34
2022-12-04T13:34:06.719Z,100266.88
2022-12-04T13:36:57.729Z,100277.84
2022-12-04T13:40:11.375Z,100270.66
2022-12-04T13:42:43.593Z,100266.44
2022-12-04T13:45:27.733Z,100268.91
2022-12-04T13:48:02.527Z,100267.19
2022-12-04T13:50:34.820Z,100273.16
2022-12-04T13:53:03.753Z,100276.13
2022-12-04T13:55:34.319Z,100266.66
2022-12-04T13:58:26.875Z,100261.94
2022-12-04T14:01:03.701Z,100262.44
2022-12-04T14:03:34.939Z,100265.19
2022-12-04T14:06:06.261Z,100260.97
2022-12-04T14:08:41.801Z,100257.00
2022-12-04T14:11:15.762Z,100252.28
2022-12-04T14:13:57.051Z,100258.56
2022-12-04T14:16:29.111Z,100263.25
2022-12-04T14:18:59.649Z,100258.03
2022-12-04T14:21:39.910Z,100257.78
2022-12-04T14:24:29.840Z,100257.97
2022-12-04T14:27:13.614Z,100255.97
2022-12-04T14:29:56.531Z,100251.47
2022-12-04T14:32:28.837Z,100262.97
2022-12-04T14:35:24.928Z,100265.19
2022-12-04T14:37:57.833Z,100276.34
2022-12-04T14:40:30.506Z,100286.81
2022-12-04T14:43:00.444Z,100288.81
2022-12-04T14:45:38.471Z,100294.03
2022-12-04T14:48:24.418Z,100298.56
2022-12-04T14:51:06.487Z,100298.28
2022-12-04T14:53:41.923Z,100301.28
2022-12-04T14:56:33.827Z,100295.78
2022-12-04T14:59:07.169Z,100295.78
2022-12-04T15:01:39.827Z,100293.78
2022-12-04T15:04:17.377Z,100294.31
2022-12-04T15:06:50.861Z,100305.28
2022-12-04T15:09:41.037Z,100300.28
2022-12-04T15:12:36.023Z,100302.00
2022-12-04T15:15:14.195Z,100296.69
2022-12-04T15:17:45.636Z,100297.75
2022-12-04T15:20:18.308Z,100298.78
2022-12-04T15:22:46.986Z,100288.31
2022-12-04T15:25:19.216Z,100287.50
2022-12-04T15:27:50.493Z,100286.59
2022-12-04T15:30:22.043Z,100285.28
2022-12-04T15:32:54.760Z,100278.81
2022-12-04T15:35:27.177Z,100279.59
2022-12-04T15:37:56.160Z,100283.19
2022-12-04T15:40:27.397Z,100281.50
2022-12-04T15:42:56.207Z,100288.72
2022-12-04T15:45:34.253Z,100293.72
2022-12-04T15:48:05.559Z,100299.94
2022-12-04T15:50:35.135Z,100305.16
2022-12-04T15:53:08.268Z,100307.72
2022-12-04T15:55:40.993Z,100306.72
2022-12-04T15:58:19.404Z,100303.69
2022-12-04T16:00:48.718Z,100297.13
2022-12-04T16:03:26.834Z,100298.44
2022-12-04T16:06:16.394Z,100289.53
2022-12-04T16:08:46.886Z,100287.25
2022-12-04T16:11:30.988Z,100287.03
2022-12-04T16:14:16.690Z,100289.09
2022-12-04T16:16:47.538Z,100301.97
2022-12-04T16:19:23.492Z,100291.59
2022-12-04T16:21:53.170Z,100289.78
2022-12-04T16:24:24.028Z,100284.06
2022-12-04T16:26:56.133Z,100290.88
2022-12-04T16:29:24.962Z,100294.38
2022-12-04T16:31:58.263Z,100289.81
2022-12-04T16:34:34.124Z,100297.84
2022-12-04T16:37:02.701Z,100296.38
2022-12-04T16:39:31.161Z,100290.63
2022-12-04T16:41:59.955Z,100292.88
2022-12-04T16:44:32.314Z,100296.88
2022-12-04T16:47:01.792Z,100303.34
2022-12-04T16:49:33.989Z,100292.41
2022-12-04T16:52:02.220Z,100291.69
2022-12-04T16:54:33.039Z,100286.47
2022-12-04T16:57:01.234Z,100282.22
2022-12-04T16:59:31.902Z,100275.22
2022-12-04T17:02:01.606Z,100276.47
2022-12-04T17:04:30.803Z,100287.69
2022-12-04T17:07:01.118Z,100279.19
2022-12-04T17:09:30.006Z,100283.97
2022-12-04T17:11:58.677Z,100283.97
2022-12-04T17:14:27.310Z,100273.44
2022-12-04T17:16:58.671Z,100271.72
2022-12-04T17:19:27.413Z,100273.75
2022-12-04T17:21:57.100Z,100263.81
2022-12-04T17:24:27.270Z,100260.81
2022-12-04T17:27:06.652Z,100256.34
2022-12-04T17:29:35.412Z,100259.09
2022-12-04T17:32:03.775Z,100253.59
2022-12-04T17:34:32.241Z,100256.59
2022-12-04T17:37:00.537Z,100256.34
2022-12-04T17:39:30.907Z,100243.19
2022-12-04T17:41:59.213Z,100246.66
2022-12-04T17:44:28.424Z,100239.47
2022-12-04T17:46:56.867Z,100235.47
2022-12-04T17:49:25.705Z,100234.00
2022-12-04T17:51:54.370Z,100247.16
2022-12-04T17:54:23.883Z,100247.41
2022-12-04T17:56:57.971Z,100262.59
2022-12-04T17:59:27.816Z,100273.34
2022-12-04T18:01:56.739Z,100281.28
2022-12-04T18:04:26.671Z,100281.78
2022-12-04T18:06:56.366Z,100288.53
2022-12-04T18:09:24.821Z,100288.75
2022-12-04T18:11:52.948Z,100296.47
2022-12-04T18:14:23.709Z,100288.53
2022-12-04T18:16:54.935Z,100283.53
2022-12-04T18:19:28.232Z,100283.28
2022-12-04T18:21:57.200Z,100279.78
2022-12-04T18:24:27.260Z,100278.81
2022-12-04T18:26:56.332Z,100283.03
2022-12-04T18:29:26.830Z,100282.03
2022-12-04T18:31:55.688Z,100281.03
2022-12-04T18:34:24.903Z,100285.03
2022-12-04T18:36:53.536Z,100283.03
2022-12-04T18:39:24.642Z,100284.00
2022-12-04T18:41:56.357Z,100291.19
2022-12-04T18:44:27.516Z,100280.78
2022-12-04T18:46:58.013Z,100284.00
2022-12-04T18:49:26.929Z,100288.75
2022-12-04T18:51:55.285Z,100292.22
2022-12-04T18:54:25.453Z,100289.97
2022-12-04T18:56:54.034Z,100290.19
2022-12-04T18:59:24.750Z,100290.47
2022-12-04T19:01:56.057Z,100282.75
2022-12-04T19:04:26.997Z,100292.47
2022-12-04T19:06:57.607Z,100296.19
2022-12-04T19:10:02.043Z,100285.19
2022-12-04T19:12:17.524Z,100284.44
2022-12-04T19:14:47.187Z,100283.97
2022-12-04T19:17:17.340Z,100285.97
2022-12-04T19:19:45.894Z,100292.47
2022-12-04T19:22:15.767Z,100287.94
2022-12-04T19:24:44.732Z,100295.66
2022-12-04T19:27:14.049Z,100295.13
2022-12-04T19:29:44.844Z,100304.41
2022-12-04T19:32:14.685Z,100299.41
2022-12-04T19:34:44.464Z,100304.38
2022-12-04T19:37:15.285Z,100307.88
2022-12-04T19:39:44.190Z,100311.56
2022-12-04T19:42:12.834Z,100311.09
2022-12-04T19:44:49.627Z,100314.81
2022-12-04T19:47:19.805Z,100323.00
2022-12-04T19:49:50.446Z,100333.47
2022-12-04T19:52:19.634Z,100330.00
2022-12-04T19:54:48.657Z,100329.50
2022-12-04T19:57:17.088Z,100325.78
2022-12-04T19:59:46.990Z,100338.47
2022-12-04T20:02:16.125Z,100345.94
2022-12-04T20:04:45.929Z,100345.94
2022-12-04T20:07:15.611Z,100348.19
2022-12-04T20:09:52.093Z,100343.94
2022-12-04T20:12:21.477Z,100348.66
2022-12-04T20:14:51.662Z,100351.16
2022-12-04T20:17:19.767Z,100355.66
2022-12-04T20:19:47.918Z,100353.44
2022-12-04T20:22:20.203Z,100355.66
2022-12-04T20:24:51.573Z,100355.41
2022-12-04T20:27:21.508Z,100353.91
2022-12-04T20:29:53.627Z,100353.16
2022-12-04T20:32:22.050Z,100353.16
2022-12-04T20:34:51.435Z,100349.19
2022-12-04T20:37:21.441Z,100355.16
2022-12-04T20:39:49.895Z,100359.41
2022-12-04T20:42:20.950Z,100358.63
2022-12-04T20:44:52.115Z,100360.38
2022-12-04T20:47:22.507Z,100362.09
2022-12-04T20:49:51.076Z,100359.13
2022-12-04T20:52:22.339Z,100372.06
2022-12-04T20:54:52.366Z,100366.84
2022-12-04T20:57:22.803Z,100368.81
2022-12-04T20:59:50.941Z,100369.81
2022-12-04T21:02:19.268Z,100367.09
2022-12-04T21:04:47.593Z,100371.31
2022-12-04T21:07:15.852Z,100369.56
2022-12-04T21:09:45.639Z,100370.31
2022-12-04T21:12:32.316Z,100375.31
2022-12-04T21:15:18.961Z,100373.06
2022-12-04T21:17:48.395Z,100373.06
2022-12-04T21:20:18.569Z,100373.31
2022-12-04T21:22:49.022Z,100371.03
2022-12-04T21:25:20.678Z,100366.56
2022-12-04T21:27:54.430Z,100367.31
2022-12-04T21:30:24.162Z,100372.53
2022-12-04T21:32:52.548Z,100371.31
2022-12-04T21:35:21.269Z,100370.28
2022-12-04T21:37:50.082Z,100379.50
2022-12-04T21:40:20.373Z,100384.00
2022-12-04T21:42:48.658Z,100375.31
2022-12-04T21:45:18.621Z,100385.97
2022-12-04T21:47:47.235Z,100379.50
2022-12-04T21:50:17.956Z,100388.47
2022-12-04T21:52:46.480Z,100383.97
2022-12-04T21:55:15.076Z,100382.47
2022-12-04T21:57:47.373Z,100384.25
2022-12-04T22:00:19.332Z,100382.00
2022-12-04T22:02:47.716Z,100389.72
2022-12-04T22:05:16.398Z,100387.72
2022-12-04T22:07:47.893Z,100388.47
2022-12-04T22:10:17.963Z,100388.72
2022-12-04T22:12:50.020Z,100396.44
2022-12-04T22:15:23.041Z,100400.16
2022-12-04T22:17:51.643Z,100398.63
2022-12-04T22:20:21.126Z,100390.69
2022-12-04T22:22:51.044Z,100402.13
2022-12-04T22:25:19.831Z,100404.16
2022-12-04T22:27:50.832Z,100396.72
2022-12-04T22:30:23.103Z,100402.69
2022-12-04T22:32:55.814Z,100404.69
2022-12-04T22:35:25.714Z,100402.94
2022-12-04T22:37:54.708Z,100402.97
2022-12-04T22:40:22.793Z,100407.66
2022-12-04T22:42:52.697Z,100407.16
2022-12-04T22:45:22.080Z,100405.19
2022-12-04T22:47:50.307Z,100407.88
2022-12-04T22:50:18.725Z,100407.44
2022-12-04T22:52:47.968Z,100420.13
2022-12-04T22:55:16.481Z,100422.38
2022-12-04T22:57:46.282Z,100418.84
2022-12-04T23:00:16.729Z,100420.13
2022-12-04T23:02:45.811Z,100420.13
2022-12-04T23:05:15.479Z,100421.88
2022-12-04T23:07:45.316Z,100430.06
2022-12-04T23:10:15.552Z,100423.34
2022-12-04T23:12:43.998Z,100424.28
2022-12-04T23:15:13.155Z,100421.59
2022-12-04T23:17:42.964Z,100420.63
2022-12-04T23:20:12.099Z,100420.88
2022-12-04T23:22:40.314Z,100421.09
2022-12-04T23:25:10.762Z,100421.38
2022-12-04T23:27:39.231Z,100421.38
2022-12-04T23:30:09.130Z,100417.38
2022-12-04T23:32:38.119Z,100413.88
2022-12-04T23:35:08.297Z,100417.41
2022-12-04T23:38:35.156Z,100422.38
2022-12-04T23:41:06.368Z,100427.84
2022-12-04T23:43:36.521Z,100421.66
2022-12-04T23:46:10.941Z,100420.38
2022-12-04T23:48:43.830Z,100416.88
2022-12-04T23:51:15.844Z,100432.56
2022-12-04T23:53:46.944Z,100423.63
2022-12-04T23:56:17.333Z,100427.34
2022-12-04T23:58:47.329Z,100433.84
